NWS Home NWS Lubbock West Texas Mesonet Day over Day changes as of 0613 AM, Tue Oct 24, 2017

Latest   N   C   S   Daily Sum   3hrΔ   24hrΔ   Soil Data 
Site Map   24hr Precip   72hr Precip   Google Plot


Station Time of Last Temp Today Temp Yesterday Delta-T Dewpoint Today Dewpoint Yesterday Delta-Td Delta-Pressure (mB)
Reese Center  06:05 AM 38.6 43.5 -4.9 30.5 37.1 -6.7 10.9
Abernathy  06:05 AM 40.8 43 -2.2 30.7 37.9 -7.3 11
Plainview  06:05 AM 41 43.8 -2.9 29.5 37.9 -8.4 11.4
Tahoka  06:05 AM 39.6 43.7 -4.1 28.6 35.7 -7.2 10.4
Slaton  06:05 AM 42.8 48.4 -5.5 27.8 35.4 -7.6 10.5
Levelland  06:05 AM 37.5 46.6 -9 27.6 36.6 -9 10.9
Roaring Springs  06:05 AM 48.7 48.1 0.6 25.2 37.8 -12.6 M
Floydada  06:05 AM 36.1 49.2 -13 29.1 35.6 -6.6 10.9
Ralls  06:05 AM 40.1 45.4 -5.3 27.5 34.1 -6.5 10.6
Brownfield  06:05 AM 45.4 45.7 -0.3 28.4 36.3 -7.9 10.5
Muleshoe  06:05 AM 34.3 40.4 -6.2 30 35.2 -5.2 11.8
Morton  06:05 AM 38 46.1 -8.1 29.8 36.1 -6.3 11
O'Donnell  06:05 AM 44.6 43.5 1 28.6 37.3 -8.7 10.2
Seagraves  06:05 AM 41 43.2 -2.1 31.3 37.3 -6 10.6
Amherst  06:05 AM 37.8 44.9 -7.1 30.8 36.4 -5.7 11.3
Plains  06:05 AM 40.5 43.9 -3.5 29.5 38 -8.5 10.6
Lamesa  06:05 AM 45.5 43.3 2.3 29.4 37.7 -8.3 10.2
Hart  06:05 AM 35.6 39.7 -4.1 29.1 35.7 -6.6 11.6
Friona  06:05 AM 36 39.4 -3.4 28.9 35.4 -6.5 11.4
Dimmitt  06:05 AM 35.7 43.2 -7.5 29.2 34.8 -5.6 11.6
Tulia  11:35 PM 45.3 51.4 -6.1 37.6 35.5 2.1 8.6
Silverton  06:05 AM 45.7 47.8 -2.1 21.7 35.8 -14.1 11.5
Post  06:05 AM 45 49.4 -4.4 26.7 34.2 -7.5 10.4
Seminole  06:05 AM 43.7 47.8 -4.1 29.8 34.5 -4.7 10.5
Gail  06:05 AM 45.7 43.3 2.5 26.7 34.3 -7.7 9.9
White River Lake  06:05 AM 43.3 49 -5.7 24.9 33.3 -8.5 10.4
Graham  04:55 AM 48.4 51.4 -3 26.5 35 -8.5 9.6
Sundown  06:05 AM 36.6 44.6 -8.1 30.4 38.6 -8.2 10.9
Anton  06:05 AM 37.4 44.6 -7.2 30 38.1 -8.1 11.1
Fluvanna  06:05 AM 48.5 47.5 1 23.7 32.5 -8.9 9.5
Spur  06:05 AM 45.5 44.3 1.2 27.5 36.9 -9.3 10.3
Northwest Lubbock  06:05 AM 42.4 49.9 -7.5 29.3 36 -6.8 10.9
Guthrie  06:05 AM 49 48.1 0.9 25.3 34.7 -9.4 10.1
Clarendon  06:05 AM 41.1 49 -8 27 34.2 -7.2 11.8
Paducah  06:05 AM 47.2 53.2 -6 27.9 35.9 -8 11.2
Snyder  06:05 AM 49 47.1 1.9 26.7 36.9 -10.2 9.3
Memphis  06:05 AM 47.8 40.2 7.6 24.8 36.2 -11.4 11.7
Jayton  06:05 AM 48.6 45.9 2.8 23.2 34.4 -11.3 9.8
Pampa  06:05 AM 42 50.1 -8 24.5 35.6 -11.1 11.9
Aspermont  06:05 AM 43.8 47.4 -3.5 30.5 36 -5.6 9.8
Hereford  06:05 AM 33.8 40.2 -6.4 26.9 33 -6.1 11.8
Goodlett  06:05 AM 46.3 44.3 2 28.5 38.4 -9.9 10.7
McLean  06:05 AM 40.8 49.5 -8.8 23.7 31.9 -8.2 11.5
Denver City  06:05 AM 41.1 47.4 -6.3 30.8 37.4 -6.6 10.6
Lake Alan Henry  06:05 AM 47 50.1 -3.1 23.8 32.8 -8.9 10.3
Wolfforth  06:05 AM 40.6 43.8 -3.2 29.7 34.7 -5 10.6
Andrews  06:05 AM 42.7 52 -9.3 30.1 33.6 -3.5 10.5
Turkey  06:05 AM 45.3 51.6 -6.3 26.9 37.7 -10.9 11.9
Childress  06:05 AM 48.3 51.3 -3 25.1 36.2 -11.1 11.2
Tatum  06:05 AM 37.3 41.4 -4.1 30.5 36.1 -5.5 10.6
Northfield  05:10 AM 45.1 49.9 -4.7 29.6 36.4 -6.8 11.4
Dora  06:05 AM 37.7 53.6 -15.9 29.2 29.3 -0.1 11
Northwest San Angelo  06:05 AM 47.6 43.2 4.4 34.2 32.3 1.9 7.9
Saint Lawrence  06:05 AM 47.1 50.5 -3.4 33.1 33.8 -0.7 9.5
Haskell  06:05 AM 43 47.4 -4.4 34.1 38.4 -4.3 9.1
Wall  06:05 AM 44.1 41.8 2.3 37.2 36 1.2 7.8
Seymour  06:05 AM 49.8 48.6 1.2 34.1 40.8 -6.7 9.4
Knox City  06:05 AM 47.9 47 1 27.9 39.8 -11.9 9.5
Guadalupe Mtns Park  06:05 AM 45.5 64.4 -18.9 29.9 15 14.9 7.6
Caprock Canyons   06:05 AM 54.2 58.1 -3.9 19.8 35.9 -16 12.1
Odell  06:05 AM 45.7 52.6 -6.9 31.2 41.1 -9.8 10.2
Coyanosa  06:05 AM 50.7 46.6 4.1 38.6 39.9 -1.3 10.4
Big Lake  06:05 AM 49.2 47.2 2 41 35.8 5.2 8.1
Junction  06:05 AM 52.4 41.9 10.5 40.4 38.6 1.8 5.9
Hobbs  06:05 AM 42.9 47.2 -4.4 32 35.9 -3.9 10.3
Canadian  03:40 PM 70 71.2 -1.2 36.5 24.2 12.2 1.8
Palo Duro Canyon State Park Rim  06:05 AM 39.8 46 -6.2 26.3 34.3 -8 12.3
Bootleg  06:05 AM 36 49.2 -13.2 25.8 30.5 -4.7 11.1
Sterling City  06:05 AM 46.5 40.9 5.6 34.3 33.3 1 8.8
Mertzon  06:05 AM 48.2 38.9 9.3 36.5 35.9 0.6 8.2
Persimmon Gap  06:05 AM 61.9 52.3 9.6 37.4 31 6.4 6
Weinert  06:05 AM 45.7 49.3 -3.6 33 39.9 -6.9 9.3
Claude 12 Southwest  06:05 AM 42.2 48.9 -6.7 25.7 33.4 -7.7 12.1
Amarillo 7 South Southeast  06:05 AM 37.1 38.8 -1.7 27 34.4 -7.5 12
Umbarger  06:05 AM 33.4 40.5 -7.1 28 34.1 -6.2 12
Lomax  06:05 AM 48 45.7 2.3 32.6 36.4 -3.8 9.9
Amarillo 9 North Northeast  06:05 AM 41.1 39.6 1.5 30.3 35.5 -5.2 12.1
Aiken 3 West Southwest  06:05 AM 36.7 39.3 -2.6 29.4 35.5 -6.1 11.2
Sweetwater  06:05 AM 49.5 56.1 -6.7 30.3 37.9 -7.5 8.9
Dozier  06:05 AM 47.8 40.5 7.3 24.8 35.4 -10.6 11.6
Amarillo 15 North Northwest  06:05 AM 42 43.3 -1.4 32.4 34.5 -2 12.1
Menard  06:05 AM 51.8 38.5 13.3 40.1 35.6 4.6 6.5
Tarzan  06:05 AM 47.2 44.9 2.3 28.6 36.1 -7.5 10.2
Goodnight  06:05 AM 40.9 42 -1.1 28.8 33.6 -4.9 12
Boys Ranch   06:05 AM 41.3 39.5 1.8 29.3 35 -5.7 12.3
Fort McKavett  06:05 AM 51.3 43.1 8.2 40.6 35.7 4.9 6.6
Fort Chadbourne  06:05 AM 54.3 41.4 12.9 29 38.3 -9.3 7.8
Palo Duro Canyon State Park Floor  06:05 AM 38.9 40.2 -1.3 28.8 35 -6.2 12.7
Fort Lancaster  06:05 AM 59 42.9 16.1 35.4 37.8 -2.4 7.6
Dell City 1N  06:05 AM 51 40.9 10.1 37.9 27.8 10 5.7
Clyde  06:05 AM 44.3 53.2 -8.8 40.9 36.9 4 8.4
Snyder SSW  06:05 AM 49.3 46.3 3 27.3 36.3 -9 9.3
Panhandle  06:05 AM 43.3 45.1 -1.8 28.9 35.9 -7 12
Vigo Park  06:05 AM 32.6 40.2 -7.6 27.9 35.7 -7.8 11.7
Welch  06:05 AM 44.4 43.3 1.1 30.6 37.9 -7.2 10.4
Throckmorton  06:05 AM 49.1 50.1 -1 37.2 37.8 -0.5 8.8
Sierra Blanca  06:05 AM 53.2 64.9 -11.6 36.2 20 16.2 5.6
Fort Lewis CO  06:05 AM 38.5 40.3 -1.8 14 19.8 -5.8 2
New Home  06:05 AM 40.2 45.3 -5.1 28.6 35.6 -7 10.6
McCamey  06:05 AM 57.5 54 3.5 35.8 36.8 -1 9.1
Stamford  06:05 AM 45.5 49.5 -4 36.8 40.7 -3.9 9.1
Crowell  06:05 AM 51.5 49.3 2.2 28.1 37.1 -9 10.1
Stinnett  06:05 AM 42.5 46.6 -4.2 23.7 33.4 -9.7 12.2
Colorado City  06:05 AM 42.7 45.2 -2.5 30.8 37.5 -6.7 9.5
Happy  06:05 AM 38 39.9 -1.9 27.8 34.6 -6.8 12
Endee  06:05 AM 31.9 43.6 -11.7 28.7 32.6 -4 11.6
Olton  06:05 AM 36.1 41.2 -5.1 29.6 36.2 -6.6 11.4

West Texas Mesonet Home   Site Map/Menu  NWS Lubbock Soil Data  Daily Summary Page  24hr Precip  72hr Precip  Google Plot